Terminal Aerodrome Forecast
Issued by NWS

Home | Current Version | Previous Version | Text Only | Print | Product List | Glossary On
Versions: 1 2 3 4 5 6 7 8 9 10 11 12 13 14 15
984
FTUS44 KTSA 270906 AAA
TAFFYV
TAF AMD
KFYV 270906Z 2709/2806 20005KT P6SM BKN023 BKN030 OVC050
     FM271500 19010KT P6SM OVC015
     FM272000 19012KT P6SM OVC025
     FM280000 18011KT P6SM VCTS OVC025CB
      TEMPO 2802/2806 2SM TSRA BR OVC007CB=

USA.gov is the U.S. government's official web portal to all federal, state and local government web resources and services.